Time;durP1;ratioP1;P1;durP2;ratioP2;P2;SDS_P1;SDS_P2;PMS_P1;PMS_P2;Temp;Humidity;BMP_temperature;BMP_pressure;BME280_temperature;BME280_humidity;BME280_pressure;Samples;Min_cycle;Max_cycle;Signal;HPM_P1;HPM_P2
2023/03/02 00:00:47;;;;;;;22.40;14.82;;;;;;;3.74;52.22;101011.13;4016284;29;19963;-63
2023/03/02 00:02:50;;;;;;;25.85;16.38;;;;;;;3.66;52.45;101015.00;4013342;29;20048;-63
2023/03/02 00:04:55;;;;;;;27.23;16.23;;;;;;;3.69;52.70;101010.00;4010099;29;20042;-63
2023/03/02 00:07:02;;;;;;;24.13;15.75;;;;;;;3.58;52.96;101006.91;4026709;29;20101;-63
2023/03/02 00:09:05;;;;;;;24.90;16.67;;;;;;;3.59;52.55;101007.75;4012308;29;20338;-63
2023/03/02 00:11:10;;;;;;;24.80;16.52;;;;;;;3.56;52.99;101000.78;4031534;29;20057;-63
2023/03/02 00:13:14;;;;;;;28.65;17.23;;;;;;;3.59;52.69;101007.75;4013884;29;20045;-63
2023/03/02 00:15:17;;;;;;;24.37;16.10;;;;;;;3.58;52.79;101004.31;4011710;29;20052;-63
2023/03/02 00:17:26;;;;;;;28.63;16.42;;;;;;;3.67;52.68;101001.34;4006789;29;20363;-63
2023/03/02 00:19:29;;;;;;;29.80;17.10;;;;;;;3.70;52.59;100998.03;4023515;29;20166;-63
2023/03/02 00:21:32;;;;;;;24.23;14.85;;;;;;;3.63;53.01;100996.84;4017446;29;20049;-63
2023/03/02 00:23:35;;;;;;;32.83;17.38;;;;;;;3.56;52.93;100997.31;4014595;29;20501;-63
2023/03/02 00:25:39;;;;;;;27.58;17.30;;;;;;;3.64;52.33;101009.78;4010594;29;20044;-63
2023/03/02 00:27:43;;;;;;;32.67;17.77;;;;;;;3.58;53.21;101003.44;4008045;29;20046;-63
2023/03/02 00:29:46;;;;;;;29.02;17.88;;;;;;;3.57;52.88;100999.97;4018797;29;20120;-63
2023/03/02 00:31:49;;;;;;;25.83;17.45;;;;;;;3.55;53.22;101000.69;4018604;29;20085;-63
2023/03/02 00:33:53;;;;;;;24.42;16.27;;;;;;;3.59;52.67;101002.63;4003689;29;20090;-63
2023/03/02 00:35:56;;;;;;;27.55;17.90;;;;;;;3.62;52.44;101005.34;4018537;29;20045;-63
2023/03/02 00:37:59;;;;;;;28.45;17.63;;;;;;;3.62;52.37;101002.78;4006061;29;20080;-63
2023/03/02 00:40:03;;;;;;;28.40;17.83;;;;;;;3.52;52.72;101000.53;4020751;29;20046;-63
2023/03/02 00:42:06;;;;;;;26.50;15.52;;;;;;;3.51;53.32;100996.22;4018631;29;20037;-63
2023/03/02 00:44:16;;;;;;;29.15;17.02;;;;;;;3.45;53.21;100997.66;4010228;29;20454;-63
2023/03/02 00:46:21;;;;;;;24.70;16.10;;;;;;;3.33;53.59;100994.47;4012885;29;20049;-63
2023/03/02 00:48:24;;;;;;;24.88;17.65;;;;;;;3.33;53.80;100989.34;4011331;29;20565;-63
2023/03/02 00:50:27;;;;;;;26.48;16.63;;;;;;;3.37;54.02;100991.22;4022031;29;20136;-63
2023/03/02 00:52:30;;;;;;;28.70;16.75;;;;;;;3.43;52.79;100994.16;4009511;29;20061;-63
2023/03/02 00:54:33;;;;;;;28.35;17.05;;;;;;;3.43;53.01;100989.00;4014633;29;20044;-63
2023/03/02 00:56:36;;;;;;;23.70;16.10;;;;;;;3.42;53.32;100989.78;4013197;29;20125;-63
2023/03/02 00:58:40;;;;;;;27.40;17.77;;;;;;;3.39;53.61;100984.50;4025226;29;20298;-63
2023/03/02 01:00:44;;;;;;;24.55;17.00;;;;;;;3.27;53.92;100989.00;4007215;29;20054;-63
2023/03/02 01:02:48;;;;;;;24.35;16.88;;;;;;;3.23;54.23;100979.38;4018092;29;20041;-63
2023/03/02 01:04:52;;;;;;;26.98;17.27;;;;;;;3.19;54.41;100974.88;4032090;29;20041;-63
2023/03/02 01:06:55;;;;;;;27.30;16.83;;;;;;;3.26;53.86;100974.41;4017444;29;20048;-63
2023/03/02 01:08:58;;;;;;;26.58;16.10;;;;;;;3.35;53.97;100980.00;4012279;29;20046;-63
2023/03/02 01:11:01;;;;;;;26.58;16.85;;;;;;;3.20;54.17;100972.38;4026455;29;20077;-64
2023/03/02 01:13:04;;;;;;;24.13;16.33;;;;;;;3.19;54.46;100964.59;4020896;29;20045;-63
2023/03/02 01:15:09;;;;;;;26.73;17.05;;;;;;;3.17;54.64;100966.19;4029574;29;20048;-63
2023/03/02 01:17:15;;;;;;;26.52;16.23;;;;;;;3.23;53.85;100969.09;4027931;29;20085;-63
2023/03/02 01:19:18;;;;;;;27.00;18.75;;;;;;;3.19;54.36;100968.03;4005837;29;20408;-63
2023/03/02 01:21:21;;;;;;;25.65;15.25;;;;;;;3.14;55.13;100966.94;4010968;29;20062;-62
2023/03/02 01:23:25;;;;;;;31.60;18.83;;;;;;;3.16;54.88;100964.44;4024979;29;20476;-62
2023/03/02 01:25:27;;;;;;;32.38;19.20;;;;;;;3.20;54.86;100976.63;4005920;29;20050;-62
2023/03/02 01:27:30;;;;;;;29.60;19.73;;;;;;;3.29;55.13;100967.72;4015642;29;20078;-63
2023/03/02 01:29:33;;;;;;;31.42;19.02;;;;;;;3.28;55.39;100960.81;4015520;29;20493;-62
2023/03/02 01:31:36;;;;;;;28.75;17.83;;;;;;;3.31;54.80;100965.22;4011737;29;20128;-62
2023/03/02 01:33:40;;;;;;;33.15;19.15;;;;;;;3.39;54.52;100963.03;4010905;29;20046;-62
2023/03/02 01:35:44;;;;;;;27.42;17.60;;;;;;;3.36;54.70;100950.94;4021602;29;20044;-62
2023/03/02 01:37:47;;;;;;;31.10;19.83;;;;;;;3.35;54.58;100949.16;4034363;29;20044;-62
2023/03/02 01:39:50;;;;;;;23.92;16.83;;;;;;;3.36;54.97;100952.59;4015151;29;20042;-62
2023/03/02 01:41:53;;;;;;;26.65;16.95;;;;;;;3.33;54.65;100953.34;4013895;29;20052;-62
2023/03/02 01:43:56;;;;;;;27.08;17.35;;;;;;;3.32;55.24;100946.44;4011596;29;20045;-62
2023/03/02 01:46:02;;;;;;;28.92;19.83;;;;;;;3.47;54.28;100941.19;4019344;29;20120;-62
2023/03/02 01:48:13;;;;;;;30.38;19.55;;;;;;;3.57;53.80;100946.00;4023095;29;20109;-62
2023/03/02 01:50:21;;;;;;;29.95;20.23;;;;;;;3.56;54.09;100936.50;4032932;29;20033;-62
2023/03/02 01:52:31;;;;;;;28.58;18.77;;;;;;;3.56;53.96;100930.50;4016307;29;20048;-62
2023/03/02 01:54:34;;;;;;;32.55;20.42;;;;;;;3.55;53.90;100926.16;4012088;29;20136;-62
2023/03/02 01:56:40;;;;;;;31.98;20.17;;;;;;;3.54;53.93;100929.53;4011822;29;20046;-62
2023/03/02 01:58:48;;;;;;;30.52;19.83;;;;;;;3.53;54.61;100925.19;4022151;29;20079;-62
2023/03/02 02:00:52;;;;;;;31.48;20.25;;;;;;;3.62;53.89;100926.56;4020025;29;20038;-63
2023/03/02 02:03:07;;;;;;;33.45;20.98;;;;;;;3.64;54.19;100929.19;4016481;29;20132;-63
2023/03/02 02:05:13;;;;;;;31.48;19.80;;;;;;;3.61;53.86;100929.03;4012437;29;20173;-63
2023/03/02 02:07:17;;;;;;;31.38;20.85;;;;;;;3.61;53.93;100919.63;4020338;29;20049;-62
2023/03/02 02:09:24;;;;;;;29.60;20.60;;;;;;;3.62;54.42;100926.56;4007364;29;20056;-63
2023/03/02 02:11:27;;;;;;;29.40;19.48;;;;;;;3.61;54.52;100924.78;4020156;29;20041;-62
2023/03/02 02:13:30;;;;;;;28.05;18.52;;;;;;;3.63;53.99;100923.16;4014059;29;20676;-63
2023/03/02 02:15:33;;;;;;;32.20;20.27;;;;;;;3.55;54.01;100923.56;4028403;29;20045;-63
2023/03/02 02:17:36;;;;;;;33.58;20.20;;;;;;;3.45;54.06;100920.56;4013316;29;20072;-63
2023/03/02 02:19:52;;;;;;;31.40;19.40;;;;;;;3.27;54.47;100924.75;4011532;29;20496;-63
2023/03/02 02:21:55;;;;;;;34.65;19.42;;;;;;;3.18;55.06;100921.72;4009081;29;20412;-63
2023/03/02 02:24:09;;;;;;;31.33;19.00;;;;;;;3.09;54.89;100925.56;4013794;29;20587;-63
2023/03/02 02:26:24;;;;;;;31.25;19.20;;;;;;;2.95;54.54;100926.56;4017022;29;20053;-63
2023/03/02 02:28:31;;;;;;;30.27;19.08;;;;;;;2.81;55.30;100919.81;4015558;29;20034;-63
2023/03/02 02:30:35;;;;;;;30.35;18.92;;;;;;;2.79;55.00;100914.59;4027844;29;20508;-63
2023/03/02 02:32:41;;;;;;;33.38;19.55;;;;;;;2.70;55.41;100912.44;4010664;29;20042;-63
2023/03/02 02:34:48;;;;;;;29.38;17.60;;;;;;;2.66;55.86;100919.84;4023718;29;20157;-63
2023/03/02 02:36:55;;;;;;;29.60;19.35;;;;;;;2.63;56.29;100915.47;4020182;29;20125;-63
2023/03/02 02:39:02;;;;;;;35.00;19.23;;;;;;;2.64;55.33;100912.06;3998161;29;20042;-63
2023/03/02 02:41:11;;;;;;;27.52;18.27;;;;;;;2.65;55.85;100902.72;4016511;29;20070;-63
2023/03/02 02:43:18;;;;;;;28.27;17.55;;;;;;;2.57;55.96;100913.44;4010298;29;20049;-63
2023/03/02 02:45:24;;;;;;;28.40;17.88;;;;;;;2.55;55.94;100916.72;4020021;29;20045;-63
2023/03/02 02:47:28;;;;;;;26.25;17.55;;;;;;;2.50;56.13;100913.91;4008892;29;20049;-63
2023/03/02 02:49:34;;;;;;;26.67;17.15;;;;;;;2.53;55.87;100911.50;4006211;29;20102;-63
2023/03/02 02:51:37;;;;;;;26.85;15.75;;;;;;;2.50;55.91;100910.44;4016410;29;20045;-63
2023/03/02 02:53:44;;;;;;;25.98;16.67;;;;;;;2.51;56.04;100909.66;4016022;29;20041;-62
2023/03/02 02:55:49;;;;;;;26.75;16.85;;;;;;;2.45;56.29;100920.47;3998747;29;20046;-62
2023/03/02 02:57:56;;;;;;;25.67;17.20;;;;;;;2.44;56.31;100916.16;4026541;29;20077;-62
2023/03/02 03:00:01;;;;;;;28.50;18.15;;;;;;;2.38;56.18;100911.56;4015040;29;20042;-61
2023/03/02 03:02:06;;;;;;;30.08;17.42;;;;;;;2.40;56.83;100912.53;4004137;29;20263;-62
2023/03/02 03:04:13;;;;;;;29.35;18.42;;;;;;;2.34;56.54;100917.31;3997543;29;20071;-62
2023/03/02 03:06:19;;;;;;;30.67;18.65;;;;;;;2.32;56.68;100913.78;4031721;29;20041;-62
2023/03/02 03:08:58;;;;;;;27.77;19.00;;;;;;;2.40;56.90;100917.66;4028980;29;20086;-62
2023/03/02 03:11:18;;;;;;;27.70;17.95;;;;;;;2.42;56.54;100910.94;4023872;29;20040;-63
2023/03/02 03:13:21;;;;;;;28.80;17.90;;;;;;;2.48;55.84;100904.34;4023968;29;20037;-62
2023/03/02 03:15:25;;;;;;;26.45;17.02;;;;;;;2.39;56.48;100913.31;4019626;29;20125;-62
2023/03/02 03:17:28;;;;;;;32.72;19.75;;;;;;;2.34;56.78;100912.19;4015025;29;20129;-62
2023/03/02 03:19:35;;;;;;;30.17;18.88;;;;;;;2.32;56.64;100913.78;4012568;29;20470;-62
2023/03/02 03:21:39;;;;;;;28.65;17.25;;;;;;;2.29;56.66;100913.59;4011110;29;20046;-62
2023/03/02 03:23:42;;;;;;;28.90;17.60;;;;;;;2.30;56.57;100915.38;4026277;29;20519;-63
2023/03/02 03:25:45;;;;;;;27.92;16.52;;;;;;;2.28;56.40;100909.31;4007975;29;20138;-62
2023/03/02 03:27:48;;;;;;;29.63;17.50;;;;;;;2.33;56.35;100904.41;4007839;29;20041;-61
2023/03/02 03:29:51;;;;;;;27.23;16.98;;;;;;;2.27;56.75;100904.97;4011535;29;20071;-62
2023/03/02 03:31:58;;;;;;;33.28;17.20;;;;;;;2.29;56.39;100908.47;4016991;29;20045;-62
2023/03/02 03:34:02;;;;;;;28.90;17.48;;;;;;;2.32;56.55;100911.22;4029176;29;20133;-62
2023/03/02 03:36:09;;;;;;;29.17;18.15;;;;;;;2.28;56.94;100904.16;4019147;29;20500;-62
2023/03/02 03:38:12;;;;;;;28.52;17.40;;;;;;;2.25;56.42;100906.56;4011048;29;20461;-62
2023/03/02 03:40:16;;;;;;;33.90;17.67;;;;;;;2.26;56.66;100900.63;4022351;29;20041;-62
2023/03/02 03:42:21;;;;;;;28.15;17.63;;;;;;;2.23;56.93;100903.94;4019066;29;20038;-62
2023/03/02 03:44:24;;;;;;;24.85;16.85;;;;;;;2.09;57.25;100902.28;4029332;29;20045;-62
2023/03/02 03:46:27;;;;;;;30.35;17.15;;;;;;;2.09;56.84;100904.84;4015517;29;20531;-62
2023/03/02 03:48:32;;;;;;;26.98;17.63;;;;;;;2.01;57.23;100901.81;4011547;29;20102;-61
2023/03/02 03:50:36;;;;;;;32.83;16.77;;;;;;;2.01;56.94;100906.94;4010348;29;20098;-62
2023/03/02 03:52:39;;;;;;;27.10;16.45;;;;;;;1.93;57.05;100908.22;4024427;29;20038;-62
2023/03/02 03:54:46;;;;;;;26.60;17.02;;;;;;;1.97;57.84;100904.13;4018614;29;20131;-62
2023/03/02 03:56:50;;;;;;;30.23;17.58;;;;;;;2.08;56.85;100903.06;4031652;29;20041;-61
2023/03/02 03:59:04;;;;;;;25.92;16.67;;;;;;;1.99;57.10;100903.44;4016383;29;20105;-62
2023/03/02 04:01:11;;;;;;;27.67;17.10;;;;;;;1.91;57.29;100912.38;4003154;29;20049;-63
2023/03/02 04:03:14;;;;;;;26.73;17.10;;;;;;;2.00;57.35;100910.34;4003708;29;20459;-63
2023/03/02 04:05:19;;;;;;;28.15;16.38;;;;;;;1.90;57.53;100910.63;4024318;29;20592;-63
2023/03/02 04:07:25;;;;;;;25.35;15.40;;;;;;;1.90;58.10;100911.50;4002713;29;20043;-62
2023/03/02 04:09:31;;;;;;;28.55;16.80;;;;;;;1.93;57.91;100913.34;4023120;29;20048;-62
2023/03/02 04:11:36;;;;;;;30.02;17.30;;;;;;;1.91;57.96;100915.84;4013819;29;20493;-62
2023/03/02 04:13:39;;;;;;;27.48;16.13;;;;;;;1.95;57.34;100910.88;4028132;29;20094;-62
2023/03/02 04:15:42;;;;;;;27.42;16.33;;;;;;;1.89;58.39;100916.53;4010236;29;20591;-63
2023/03/02 04:17:49;;;;;;;24.67;15.52;;;;;;;1.89;58.12;100908.84;4023101;29;20052;-62
2023/03/02 04:19:54;;;;;;;32.03;18.50;;;;;;;1.95;58.05;100916.00;4005744;29;20049;-62
2023/03/02 04:22:00;;;;;;;32.50;18.52;;;;;;;1.95;57.59;100911.75;4019821;29;20416;-62
2023/03/02 04:24:04;;;;;;;28.77;17.02;;;;;;;1.95;58.00;100916.00;4012935;29;20042;-62
2023/03/02 04:26:07;;;;;;;25.38;15.35;;;;;;;1.86;58.14;100918.94;4018038;29;20041;-62
2023/03/02 04:28:09;;;;;;;26.15;16.83;;;;;;;1.83;58.29;100919.63;4011600;29;20058;-62
2023/03/02 04:30:16;;;;;;;26.88;15.88;;;;;;;1.88;58.11;100923.34;4007224;29;20101;-62
2023/03/02 04:32:19;;;;;;;24.00;16.00;;;;;;;1.94;57.80;100914.22;4019183;29;20133;-62
2023/03/02 04:34:27;;;;;;;24.65;15.93;;;;;;;2.03;57.28;100912.16;4018880;29;20136;-62
2023/03/02 04:36:31;;;;;;;28.17;16.75;;;;;;;1.99;57.35;100915.38;4011459;29;20041;-62
2023/03/02 04:38:39;;;;;;;28.88;16.73;;;;;;;1.97;57.19;100919.53;4025539;29;20505;-62
2023/03/02 04:40:41;;;;;;;26.25;16.27;;;;;;;1.90;57.46;100916.63;4024566;29;20045;-62
2023/03/02 04:42:44;;;;;;;30.63;16.38;;;;;;;1.88;57.31;100925.91;4010609;29;20049;-62
2023/03/02 04:44:47;;;;;;;27.40;16.08;;;;;;;1.87;57.41;100923.25;4018554;29;20044;-62
2023/03/02 04:46:51;;;;;;;28.38;16.55;;;;;;;1.88;57.36;100922.44;4019381;29;20373;-62
2023/03/02 04:48:55;;;;;;;28.67;16.23;;;;;;;1.82;57.81;100922.97;4016043;29;20047;-63
2023/03/02 04:50:58;;;;;;;24.23;15.63;;;;;;;1.86;57.65;100917.25;4008702;29;20141;-63
2023/03/02 04:53:00;;;;;;;26.27;16.00;;;;;;;1.80;57.67;100919.47;4011972;29;20049;-63
2023/03/02 04:55:06;;;;;;;27.27;16.60;;;;;;;1.77;57.59;100928.63;4015503;29;20408;-63
2023/03/02 04:57:09;;;;;;;25.58;15.95;;;;;;;1.72;57.50;100924.16;4020472;29;20041;-63
2023/03/02 04:59:11;;;;;;;27.05;16.80;;;;;;;1.71;57.87;100926.63;4016261;29;20399;-63
2023/03/02 05:01:16;;;;;;;29.33;17.08;;;;;;;1.67;57.70;100925.56;4014076;29;20046;-63
2023/03/02 05:03:19;;;;;;;27.10;17.25;;;;;;;1.61;57.39;100930.34;4010099;29;20531;-63
2023/03/02 05:05:24;;;;;;;26.67;16.05;;;;;;;1.57;57.79;100933.50;4025522;29;20093;-63
2023/03/02 05:07:26;;;;;;;24.27;14.90;;;;;;;1.67;57.93;100929.81;4020521;29;20102;-63
2023/03/02 05:09:29;;;;;;;24.05;14.95;;;;;;;1.67;57.47;100920.44;4017249;29;20073;-63
2023/03/02 05:11:34;;;;;;;22.60;14.25;;;;;;;1.60;57.83;100923.44;4011077;29;20054;-63
2023/03/02 05:13:37;;;;;;;25.75;15.80;;;;;;;1.63;58.01;100920.19;4007829;29;20059;-63
2023/03/02 05:15:42;;;;;;;26.02;15.77;;;;;;;1.63;57.60;100918.47;4009861;29;20033;-63
2023/03/02 05:17:45;;;;;;;;;;;;;;;1.65;57.62;100922.03;4020822;29;20458;-63
2023/03/02 05:19:47;;;;;;;28.00;15.10;;;;;;;1.57;57.99;100920.69;4018760;29;19924;-63
2023/03/02 05:21:50;;;;;;;23.88;15.75;;;;;;;1.63;57.53;100921.03;4028900;29;20037;-63
2023/03/02 05:23:53;;;;;;;26.25;16.63;;;;;;;1.61;57.74;100919.19;4012679;29;20095;-63
2023/03/02 05:25:57;;;;;;;25.88;15.15;;;;;;;1.64;57.44;100915.13;4009531;29;20042;-63
2023/03/02 05:28:02;;;;;;;23.95;14.88;;;;;;;1.62;57.36;100913.28;4008807;29;20045;-63
2023/03/02 05:30:06;;;;;;;23.90;15.43;;;;;;;1.55;57.79;100915.50;4004829;29;20493;-63
2023/03/02 05:32:11;;;;;;;26.35;15.25;;;;;;;1.56;57.88;100913.81;4016903;29;20066;-63
2023/03/02 05:34:16;;;;;;;32.53;16.77;;;;;;;1.61;57.80;100909.84;4014002;29;20510;-63
2023/03/02 05:36:19;;;;;;;25.98;17.23;;;;;;;1.61;57.70;100916.63;4010942;29;20083;-63
2023/03/02 05:38:26;;;;;;;26.15;15.77;;;;;;;1.66;57.84;100920.34;4007936;29;20043;-63
2023/03/02 05:40:29;;;;;;;25.93;15.63;;;;;;;1.60;57.60;100914.88;4033799;29;20052;-63
2023/03/02 05:42:32;;;;;;;23.42;14.80;;;;;;;1.62;57.63;100909.06;4016893;29;20302;-63
2023/03/02 05:44:36;;;;;;;26.70;15.60;;;;;;;1.67;57.70;100917.88;4013899;29;20041;-62
2023/03/02 05:46:40;;;;;;;30.20;15.82;;;;;;;1.63;58.11;100915.91;4012059;29;20048;-62
2023/03/02 05:48:44;;;;;;;22.95;14.70;;;;;;;1.62;58.27;100923.53;4022926;29;20583;-63
2023/03/02 05:50:47;;;;;;;32.63;15.18;;;;;;;1.67;58.07;100922.13;4033530;29;20085;-63
2023/03/02 05:52:49;;;;;;;31.50;16.73;;;;;;;1.78;57.67;100927.84;4017014;29;20059;-62
2023/03/02 05:54:52;;;;;;;29.20;15.35;;;;;;;1.74;57.47;100926.81;4029231;29;20056;-63
2023/03/02 05:56:55;;;;;;;26.40;15.35;;;;;;;1.77;57.40;100929.53;4010341;29;20110;-62
2023/03/02 05:59:00;;;;;;;28.52;16.55;;;;;;;1.60;57.66;100928.56;4003467;29;20042;-62
2023/03/02 06:01:08;;;;;;;28.88;16.08;;;;;;;1.56;57.81;100926.63;4012988;29;20054;-63
2023/03/02 06:03:11;;;;;;;30.45;17.15;;;;;;;1.56;58.03;100919.81;4012543;29;20048;-63
2023/03/02 06:05:15;;;;;;;27.85;17.52;;;;;;;1.55;58.20;100930.00;4017004;29;20051;-63
2023/03/02 06:07:18;;;;;;;27.50;16.02;;;;;;;1.60;57.81;100933.69;4009317;29;20061;-63
2023/03/02 06:09:21;;;;;;;29.00;16.55;;;;;;;1.55;58.20;100935.13;4010351;29;20037;-63
2023/03/02 06:11:24;;;;;;;26.10;15.18;;;;;;;1.50;58.27;100931.38;4015566;29;20033;-62
2023/03/02 06:13:27;;;;;;;30.05;16.27;;;;;;;1.52;58.22;100940.94;4018425;29;20108;-62
2023/03/02 06:15:30;;;;;;;30.45;16.85;;;;;;;1.52;58.46;100934.91;4014392;29;20042;-63
2023/03/02 06:17:34;;;;;;;25.58;15.70;;;;;;;1.40;58.69;100924.84;4014670;29;20109;-63
2023/03/02 06:19:37;;;;;;;25.40;15.50;;;;;;;1.52;58.53;100934.91;4006854;29;20573;-63
2023/03/02 06:21:40;;;;;;;24.92;15.45;;;;;;;1.51;58.46;100938.28;4008559;29;20420;-62
2023/03/02 06:23:42;;;;;;;28.58;17.00;;;;;;;1.51;58.48;100934.03;4019284;29;20548;-63
2023/03/02 06:25:47;;;;;;;29.38;16.67;;;;;;;1.49;58.63;100930.50;4014995;29;20073;-62
2023/03/02 06:27:52;;;;;;;28.60;16.15;;;;;;;1.45;58.84;100943.06;4013639;29;20037;-62
2023/03/02 06:29:55;;;;;;;26.27;16.73;;;;;;;1.46;58.88;100944.81;4011611;29;20085;-63
2023/03/02 06:31:58;;;;;;;25.80;15.75;;;;;;;1.56;58.74;100941.97;4002762;29;20046;-63
2023/03/02 06:34:02;;;;;;;27.65;16.02;;;;;;;1.48;58.86;100935.56;4009970;29;20082;-63
2023/03/02 06:36:06;;;;;;;29.65;16.95;;;;;;;1.49;58.97;100939.84;4020490;29;20045;-63
2023/03/02 06:38:09;;;;;;;29.85;17.15;;;;;;;1.44;59.07;100937.03;4030238;29;20400;-63
2023/03/02 06:40:12;;;;;;;29.08;16.85;;;;;;;1.50;59.10;100933.94;4011298;29;20049;-63
2023/03/02 06:42:16;;;;;;;34.87;17.07;;;;;;;1.50;58.89;100946.75;4007022;29;20048;-63
2023/03/02 06:44:18;;;;;;;35.58;15.82;;;;;;;1.52;59.28;100937.47;4006422;29;20664;-63
2023/03/02 06:46:22;;;;;;;27.20;16.45;;;;;;;1.52;59.00;100951.19;4004330;29;20050;-63
2023/03/02 06:48:26;;;;;;;29.50;16.33;;;;;;;1.49;58.84;100944.97;4007376;29;20038;-64
2023/03/02 06:50:30;;;;;;;28.75;16.25;;;;;;;1.49;58.93;100939.84;4011967;29;20386;-63
2023/03/02 06:52:33;;;;;;;33.88;16.83;;;;;;;1.46;59.01;100935.47;4021351;29;20078;-63
2023/03/02 06:54:37;;;;;;;36.45;16.38;;;;;;;1.57;58.45;100943.75;4007912;29;20126;-64
2023/03/02 06:56:39;;;;;;;29.80;16.77;;;;;;;1.55;58.88;100950.50;4005257;29;20530;-63
2023/03/02 06:58:42;;;;;;;36.63;16.90;;;;;;;1.54;59.18;100949.59;4016454;29;20045;-63
2023/03/02 07:00:45;;;;;;;34.78;18.08;;;;;;;1.53;59.02;100954.63;4014322;29;20066;-63
2023/03/02 07:02:48;;;;;;;31.25;17.02;;;;;;;1.58;59.15;100955.78;4013053;29;20049;-63
2023/03/02 07:04:51;;;;;;;26.30;17.38;;;;;;;1.61;59.19;100953.41;3994902;29;20103;-63
2023/03/02 07:06:58;;;;;;;27.50;16.83;;;;;;;1.63;59.24;100956.94;4003551;29;20078;-63
2023/03/02 07:09:01;;;;;;;28.15;16.83;;;;;;;1.69;59.16;100959.84;4020574;29;20393;-63
2023/03/02 07:11:05;;;;;;;26.67;15.50;;;;;;;1.81;58.50;100957.13;4017141;29;20128;-63
2023/03/02 07:13:08;;;;;;;30.98;17.63;;;;;;;1.94;58.00;100953.56;4019843;29;20041;-63
2023/03/02 07:15:13;;;;;;;31.60;17.23;;;;;;;1.97;58.59;100956.31;4011478;29;20102;-63
2023/03/02 07:17:16;;;;;;;31.45;17.13;;;;;;;2.00;58.57;100960.72;4011328;29;20045;-63
2023/03/02 07:19:18;;;;;;;29.17;16.95;;;;;;;1.96;58.29;100958.78;4006941;29;20042;-62
2023/03/02 07:21:21;;;;;;;34.75;18.23;;;;;;;1.97;58.20;100953.75;4008983;29;20053;-63
2023/03/02 07:23:25;;;;;;;26.90;16.00;;;;;;;2.01;58.44;100953.13;4029716;29;20044;-62
2023/03/02 07:25:28;;;;;;;27.20;16.70;;;;;;;2.01;58.42;100953.13;4016615;29;20046;-64
2023/03/02 07:27:31;;;;;;;34.60;17.63;;;;;;;2.14;58.05;100951.25;4011980;29;20162;-63
2023/03/02 07:29:34;;;;;;;27.52;16.25;;;;;;;2.13;57.77;100960.59;4011650;29;20133;-64
2023/03/02 07:31:37;;;;;;;26.90;16.35;;;;;;;2.17;58.00;100951.44;4010703;29;20045;-62
2023/03/02 07:33:40;;;;;;;34.75;17.02;;;;;;;2.13;58.03;100959.75;4022609;29;20077;-62
2023/03/02 07:35:43;;;;;;;30.38;16.92;;;;;;;2.21;57.93;100961.94;4011621;29;20037;-61
2023/03/02 07:37:46;;;;;;;34.05;17.02;;;;;;;2.23;58.36;100960.34;4014646;29;20034;-62
2023/03/02 07:39:50;;;;;;;29.08;16.95;;;;;;;2.25;58.01;100960.44;4006469;29;20072;-61
2023/03/02 07:41:56;;;;;;;30.60;17.45;;;;;;;2.20;58.41;100961.84;4005641;29;20046;-63
2023/03/02 07:43:59;;;;;;;33.75;17.92;;;;;;;2.27;57.74;100963.97;4005411;29;20037;-62
2023/03/02 07:46:03;;;;;;;29.00;16.83;;;;;;;2.30;58.39;100960.69;4004662;29;20046;-62
2023/03/02 07:48:06;;;;;;;29.30;16.10;;;;;;;2.39;58.41;100966.31;4023278;29;20236;-63
2023/03/02 07:50:11;;;;;;;24.25;14.80;;;;;;;2.47;57.31;100964.16;4015513;29;20511;-64
2023/03/02 07:52:13;;;;;;;28.60;17.17;;;;;;;2.56;57.81;100967.25;4027005;29;20516;-62
2023/03/02 07:54:16;;;;;;;34.83;16.30;;;;;;;2.50;57.08;100965.25;4022667;29;20124;-63
2023/03/02 07:56:20;;;;;;;31.88;17.30;;;;;;;2.43;58.15;100969.13;4020169;29;20814;-62
2023/03/02 07:58:24;;;;;;;29.90;17.65;;;;;;;2.49;57.71;100972.84;4007896;29;20034;-63
2023/03/02 08:00:27;;;;;;;25.45;15.98;;;;;;;2.62;57.17;100972.72;4004893;29;20081;-62
2023/03/02 08:02:32;;;;;;;28.10;17.27;;;;;;;2.63;57.49;100969.38;4017956;29;20049;-62
2023/03/02 08:04:35;;;;;;;38.97;17.67;;;;;;;2.65;57.55;100962.63;4012526;29;20069;-62
2023/03/02 08:06:38;;;;;;;24.10;16.50;;;;;;;2.66;57.50;100964.41;4006726;29;20049;-62
2023/03/02 08:08:44;;;;;;;28.48;16.67;;;;;;;2.82;56.83;100962.63;4008712;29;20043;-62
2023/03/02 08:10:47;;;;;;;27.98;16.58;;;;;;;2.87;56.79;100962.09;4007660;29;20052;-62
2023/03/02 08:12:51;;;;;;;29.75;16.10;;;;;;;2.86;57.16;100962.00;4019962;29;20407;-62
2023/03/02 08:14:54;;;;;;;33.40;17.38;;;;;;;2.92;56.67;100962.31;4016993;29;20245;-62
2023/03/02 08:16:57;;;;;;;28.92;16.67;;;;;;;2.96;56.78;100966.81;4004530;29;20496;-62
2023/03/02 08:19:00;;;;;;;27.85;16.55;;;;;;;3.01;57.09;100965.41;4010052;29;20070;-62
2023/03/02 08:21:03;;;;;;;31.65;16.75;;;;;;;3.02;57.23;100964.56;4011918;29;20041;-62
2023/03/02 08:23:07;;;;;;;29.13;17.00;;;;;;;3.11;56.83;100964.19;4025933;29;20575;-62
2023/03/02 08:25:10;;;;;;;26.23;16.50;;;;;;;3.22;56.47;100964.75;4006354;29;20054;-62
2023/03/02 08:27:15;;;;;;;29.67;17.55;;;;;;;3.28;56.57;100965.94;4008382;29;20045;-62
2023/03/02 08:29:19;;;;;;;;;;;;;;;3.39;55.86;100963.94;4004687;29;20136;-62
2023/03/02 08:31:22;;;;;;;33.28;17.83;;;;;;;3.40;56.44;100960.56;4008608;29;20269;-62
2023/03/02 08:33:26;;;;;;;29.70;16.92;;;;;;;3.52;55.61;100954.28;4012479;29;20065;-62
2023/03/02 08:35:29;;;;;;;23.45;15.85;;;;;;;3.59;56.11;100958.91;4011731;29;20114;-62
2023/03/02 08:37:32;;;;;;;30.45;17.80;;;;;;;3.70;55.59;100952.63;4007252;29;20049;-62
2023/03/02 08:39:35;;;;;;;32.42;18.25;;;;;;;3.71;55.66;100951.84;4012188;29;20049;-61
2023/03/02 08:41:38;;;;;;;27.17;17.10;;;;;;;3.86;55.25;100950.84;4009692;29;20049;-63
2023/03/02 08:43:41;;;;;;;27.02;16.67;;;;;;;3.84;55.40;100941.34;4006954;29;20037;-62
2023/03/02 08:45:45;;;;;;;29.60;18.73;;;;;;;3.93;55.27;100942.59;4008672;29;20110;-62
2023/03/02 08:47:48;;;;;;;28.58;16.15;;;;;;;4.08;55.12;100947.63;4015081;29;20597;-62
2023/03/02 08:49:51;;;;;;;27.75;18.80;;;;;;;4.13;54.80;100943.56;4001024;29;20420;-62
2023/03/02 08:51:55;;;;;;;29.73;19.10;;;;;;;4.11;55.17;100940.03;4017518;29;20110;-62
2023/03/02 08:53:58;;;;;;;32.72;17.30;;;;;;;4.25;54.66;100950.97;4006597;29;20037;-62
2023/03/02 08:56:01;;;;;;;32.38;18.48;;;;;;;4.29;54.24;100942.59;4007417;29;20086;-62
2023/03/02 08:58:04;;;;;;;28.33;17.17;;;;;;;4.23;54.70;100942.31;4020052;29;20085;-62
2023/03/02 09:00:13;;;;;;;26.27;16.83;;;;;;;4.42;54.02;100944.06;4003712;29;20054;-61
2023/03/02 09:02:17;;;;;;;29.77;16.55;;;;;;;4.54;53.63;100936.91;3999919;29;20052;-61
2023/03/02 09:04:20;;;;;;;26.17;16.13;;;;;;;4.51;54.18;100935.09;4007949;29;20082;-62
2023/03/02 09:06:23;;;;;;;28.48;16.20;;;;;;;4.69;54.06;100936.75;4011888;29;20106;-61
2023/03/02 09:08:26;;;;;;;30.10;16.88;;;;;;;4.78;53.25;100929.44;4022454;29;20128;-62
2023/03/02 09:10:29;;;;;;;27.10;16.45;;;;;;;4.80;53.35;100921.75;4007987;29;20049;-61
2023/03/02 09:12:32;;;;;;;30.08;18.50;;;;;;;4.85;53.39;100925.44;4007912;29;20076;-61
2023/03/02 09:14:35;;;;;;;30.48;18.38;;;;;;;5.03;53.12;100923.66;4020520;29;20095;-62
2023/03/02 09:16:38;;;;;;;29.30;17.27;;;;;;;5.13;53.09;100924.97;4008227;29;20034;-62
2023/03/02 09:18:42;;;;;;;25.75;15.30;;;;;;;5.23;52.63;100919.38;4006694;29;20462;-61
2023/03/02 09:20:49;;;;;;;26.98;15.65;;;;;;;5.24;52.69;100918.59;4009657;29;20389;-62
2023/03/02 09:22:52;;;;;;;28.83;16.23;;;;;;;5.20;53.01;100916.69;4005768;29;20098;-62
2023/03/02 09:24:55;;;;;;;29.80;17.48;;;;;;;5.35;52.54;100921.59;4000110;29;20078;-62
2023/03/02 09:26:58;;;;;;;30.92;17.38;;;;;;;5.48;52.48;100915.28;4002443;29;20057;-62
2023/03/02 09:29:01;;;;;;;30.13;16.80;;;;;;;5.57;52.28;100914.78;4005392;29;20549;-61
2023/03/02 09:31:06;;;;;;;26.77;17.38;;;;;;;5.69;52.78;100912.69;4003745;29;20056;-62